首页
METAR-TAF:

METAR-TAF

机场 :

車里雅賓斯克機場

車里雅賓斯克, 俄罗斯

纬度: 55-10N, 经度: 061-24E, 海拔: 234米

当前天气观测

该预报发布于34分钟前的10:30 UTC
风速14节,风向西转西北
温度 -14°C
湿度 60%
气压 1015 hPa
能见度10公里或以上
低吹雪

METAR: USCC 281030Z 29007MPS 9999 DRSN NSC M14/M20 Q1015 R27/000060 NOSIG RMK QFE741

时间: 16:04 (11:04 UTC)

预报

该预报发布于3小时和4分钟前的08:00 UTC
预报有效从28日的 09点(UTC)到 29日的 09点(UTC)
风速10节,风向西转西北,有时为25节阵风
能见度10公里或以上
散云层高于3000英尺
短暂存在
从 28日的 09点(UTC)到 28日的 15点(UTC)
风速14节,风向西,有时为29节阵风
能見度: 5000
多云层高于1500英尺, 积雨云.
小阵雪, 高吹雪
短暂存在
从 28日的 15点(UTC)到 28日的 21点(UTC)
风速6节,风向西转西南,有时为16节阵风
从 28日的 2100点(UTC)
风速6节,风向西转西南,有时为16节阵风
能見度: 3100
散云层高于1100英尺
轻雾

TAF: USCC 280800Z 2809/2909 29005G13MPS 9999 SCT030 TEMPO 2809/2815 28007G15MPS 5000 -SHSN BLSN BKN015CB TEMPO 2815/2821 25003G08MPS FM282100 25003G08MPS 3100 BR SCT011

超过4000个机场的气象观测和天气预报(METAR&TAF报告)。

可查询的气象台以黄色和红色小点在地图上表示。

将鼠标移到小点上方,可查看气象台名称。

然后点击查看天气观测和预报。

如需切换地图:点击带黑十字的绿色按钮放大地图;点击带横线的绿色按钮缩小地图;或者点击绿色箭头查看邻近地区的地图。


METAR-TAF: